Home > Products > Valid Products > TAF

000
FTUS43 KAPX 242100 AAA
TAFTVC
TAF AMD
KTVC 242136Z 2422/2518 24005KT P6SM OVC012
     FM250800 00000KT 5SM -DZ BR OVC006
     FM251200 27007KT 6SM BR OVC015
     FM251700 28012G20KT P6SM SCT015=



000
FTUS43 KAPX 242100 AAA
TAFPLN
TAF AMD
KPLN 242135Z 2422/2518 25006KT P6SM OVC015
     FM250700 00000KT 1 1/2SM -DZ BR OVC003
     FM251200 28009KT P6SM OVC015
     FM251700 29015G24KT P6SM SCT015=



000
FTUS43 KAPX 241700 AAA
TAFAPN
TAF AMD
KAPN 241739Z 2418/2518 00000KT P6SM OVC040
      TEMPO 2418/2422 OVC025
     FM250000 17004KT P6SM OVC012
     FM251000 17003KT 6SM BR OVC007
     FM251400 23006KT P6SM OVC015=



000
FTUS43 KAPX 241700
TAFAPN
TAF
KAPN 241721Z 2418/2518 00000KT P6SM OVC040
     FM250000 17004KT P6SM OVC012
     FM251000 17003KT 6SM BR OVC007
     FM251400 23006KT P6SM OVC015=



000
FTUS43 KAPX 241700
TAFPLN
TAF
KPLN 241721Z 2418/2518 00000KT P6SM OVC013
     FM250000 25005KT P6SM SCT200
     FM250300 00000KT 4SM BR OVC007
     FM250700 00000KT 1 1/2SM -DZ BR OVC003
     FM251200 28009KT P6SM OVC015
     FM251700 29015G24KT P6SM SCT015=



000
FTUS43 KAPX 241700
TAFTVC
TAF
KTVC 241721Z 2418/2518 23006KT P6SM OVC012
     FM250000 20003KT P6SM SCT200
     FM250600 00000KT P6SM OVC012
     FM250800 00000KT 5SM -DZ BR OVC006
     FM251200 27007KT 6SM BR OVC015
     FM251700 28012G20KT P6SM SCT015=



000
FTUS43 KAPX 241700 AAB
TAFTVC
TAF AMD
KTVC 241701Z 2417/2512 23006KT P6SM OVC012
     FM242100 24005KT P6SM SCT026
     FM250000 20003KT P6SM SCT200
     FM250600 00000KT P6SM OVC012
     FM250800 00000KT 5SM -DZ BR OVC006=



000
FTUS43 KAPX 241500 AAA
TAFTVC
TAF AMD
KTVC 241523Z 2415/2512 23006KT P6SM BKN006 OVC021
     FM242100 24005KT P6SM SCT026
     FM250000 20003KT P6SM SCT200
     FM250600 00000KT P6SM OVC012
     FM250800 00000KT 5SM -DZ BR OVC006=



000
FTUS43 KAPX 241300 AAA
TAFAPN
TAF AMD
KAPN 241315Z 2413/2512 00000KT P6SM OVC040
     FM250000 17004KT P6SM OVC012
     FM251000 17003KT 6SM BR OVC007=



000
FTUS43 KAPX 241300 AAA
TAFPLN
TAF AMD
KPLN 241314Z 2413/2512 00000KT P6SM OVC013
     FM241900 24005KT P6SM BKN025
     FM250000 25005KT P6SM SCT200
     FM250300 00000KT 4SM BR OVC007
     FM250700 00000KT 1 1/2SM -DZ BR OVC003=



000
FTUS43 KAPX 241100
TAFPLN
TAF
KPLN 241120Z 2412/2512 00000KT P6SM SCT006 OVC012
      TEMPO 2412/2414 3SM -DZ BR OVC005
     FM241400 24005KT P6SM OVC015
     FM241900 24005KT P6SM BKN025
     FM250000 25005KT P6SM SCT200
     FM250300 00000KT 4SM BR OVC007
     FM250700 00000KT 1 1/2SM -DZ BR OVC003=



000
FTUS43 KAPX 241100
TAFAPN
TAF
KAPN 241120Z 2412/2512 00000KT P6SM SCT025 OVC040
      TEMPO 2412/2414 OVC025
     FM241400 23004KT P6SM OVC025
     FM250000 17004KT P6SM OVC012
     FM251000 17003KT 6SM BR OVC007=



000
FTUS43 KAPX 241100
TAFTVC
TAF
KTVC 241120Z 2412/2512 00000KT P6SM OVC025
     FM241600 24005KT P6SM OVC022
     FM242100 24005KT P6SM SCT026
     FM250000 20003KT P6SM SCT200
     FM250600 00000KT P6SM OVC012
     FM250800 00000KT 5SM -DZ BR OVC006=



000
FTUS43 KAPX 240500
TAFAPN
TAF
KAPN 240520Z 2406/2506 00000KT P6SM SCT090 BKN250
     FM241300 23004KT P6SM OVC025
     FM241600 22005KT P6SM OVC035
     FM242200 17004KT P6SM SCT040=



000
FTUS43 KAPX 240500
TAFPLN
TAF
KPLN 240520Z 2406/2506 00000KT P6SM BKN025 OVC080
     FM240800 00000KT 6SM -DZ BR SCT006 OVC012
     FM241500 24005KT P6SM OVC015
     FM241900 24005KT P6SM BKN025
     FM242100 25005KT P6SM SCT030
     FM250000 00000KT P6SM SCT120=



000
FTUS43 KAPX 240500
TAFTVC
TAF
KTVC 240520Z 2406/2506 15003KT P6SM BKN025 OVC070
     FM240700 00000KT 6SM BR OVC018
     FM241600 24005KT P6SM OVC022
     FM242000 24005KT P6SM SCT026
     FM250000 20003KT P6SM FEW120=



000
FTUS43 KAPX 240300 AAB
TAFAPN
TAF AMD
KAPN 240312Z 2403/2424 00000KT P6SM BKN250
     FM241300 22004KT P6SM OVC025
     FM241600 20005KT P6SM OVC035
     FM242200 17004KT P6SM SCT040=



000
FTUS43 KAPX 240300 AAB
TAFAPN
TAF AMD
KAPN 240312Z 2403/2424 00000KT P6SM BKN250
     FM241300 22004KT P6SM OVC025
     FM241600 20005KT P6SM OVC035
     FM242200 17004KT P6SM SCT040=



000
FTUS43 KAPX 240000 AAA
TAFAPN
TAF AMD
KAPN 240033Z 2401/2424 00000KT P6SM SCT250
      TEMPO 2401/2404 1SM BR SCT002
     FM241300 22004KT P6SM OVC025
     FM241600 20005KT P6SM OVC035
     FM242200 17004KT P6SM SCT040=



000
FTUS43 KAPX 232300
TAFTVC
TAF
KTVC 232326Z 2400/2424 00000KT P6SM SCT080 OVC150
     FM240200 00000KT P6SM VCSH OVC080
     FM240600 00000KT 6SM -DZ BR SCT006 OVC015
     FM241600 24005KT P6SM BKN018
     FM241900 25005KT P6SM SCT025=



000
FTUS43 KAPX 232300
TAFPLN
TAF
KPLN 232326Z 2400/2424 00000KT P6SM SCT150 OVC200
     FM240500 00000KT P6SM VCSH FEW015 OVC120
     FM240800 00000KT 6SM -DZ BR SCT006 OVC012
     FM241500 24005KT P6SM OVC015
     FM242000 24005KT P6SM SCT025=



000
FTUS43 KAPX 232300
TAFAPN
TAF
KAPN 232326Z 2400/2424 00000KT P6SM SCT120 BKN250
     FM241300 22004KT P6SM OVC025
     FM241600 20005KT P6SM OVC035
     FM242200 17004KT P6SM SCT040=



000
FTUS43 KAPX 231700
TAFPLN
TAF
KPLN 231722Z 2318/2418 17004KT P6SM BKN250
     FM240000 00000KT P6SM BKN070
     FM240900 00000KT 4SM BR OVC005
     FM241400 24006KT P6SM BKN012=



000
FTUS43 KAPX 231700
TAFTVC
TAF
KTVC 231722Z 2318/2418 16004KT P6SM BKN250
     FM232200 00000KT P6SM OVC070
     FM240800 00000KT 4SM BR OVC005
     FM241400 24005KT P6SM BKN012=



000
FTUS43 KAPX 231700
TAFAPN
TAF
KAPN 231722Z 2318/2418 14005KT P6SM SCT250
     FM240000 00000KT P6SM BKN250
     FM240800 00000KT P6SM BKN120
     FM241200 00000KT P6SM OVC025
     FM241500 24004KT P6SM BKN035=



000
FTUS43 KAPX 231200 AAB
TAFAPN
TAF AMD
KAPN 231206Z 2312/2412 00000KT P6SM MIFG SCT002
     FM231300 14005KT P6SM SKC
     FM240000 00000KT P6SM BKN250
     FM240800 00000KT P6SM BKN120=



000
FTUS43 KAPX 231100 AAA
TAFAPN
TAF AMD
KAPN 231132Z 2312/2412 00000KT P6SM MIFG BKN002
     FM231300 14005KT P6SM SKC
     FM240000 00000KT P6SM BKN250
     FM240800 00000KT P6SM BKN120=



000
FTUS43 KAPX 231100
TAFAPN
TAF
KAPN 231120Z 2312/2412 00000KT P6SM MIFG SCT001
     FM231300 14005KT P6SM SKC
     FM240000 00000KT P6SM BKN250
     FM240800 00000KT P6SM BKN120=



000
FTUS43 KAPX 231100
TAFTVC
TAF
KTVC 231120Z 2312/2412 00000KT P6SM SKC
     FM231400 16004KT P6SM SCT250
     FM232200 00000KT P6SM OVC070
     FM240800 00000KT 4SM BR OVC005=



000
FTUS43 KAPX 231100
TAFPLN
TAF
KPLN 231120Z 2312/2412 00000KT P6SM SKC
     FM231400 17004KT P6SM SCT250
     FM240000 00000KT P6SM BKN070
     FM240900 00000KT 4SM BR OVC005=



000
FTUS43 KAPX 230900 AAC
TAFAPN
TAF AMD
KAPN 230956Z 2310/2406 00000KT P6SM SCT001
      TEMPO 2310/2312 1SM BR OVC001
     FM231300 14005KT P6SM SCT250
     FM240000 00000KT P6SM BKN250=



000
FTUS43 KAPX 230900 AAC
TAFAPN
TAF AMD
KAPN 230956Z 2310/2406 00000KT P6SM SCT001
      TEMPO 2310/2312 1SM BR OVC001
     FM231300 14005KT P6SM SCT250
     FM240000 00000KT P6SM BKN250=



000
FTUS43 KAPX 230600 AAB
TAFAPN
TAF AMD
KAPN 230655Z 2307/2406 00000KT 2SM BR SCT001
      TEMPO 2307/2311 1/4SM FG OVC001
     FM231300 14005KT P6SM SCT250
     FM240000 00000KT P6SM BKN250=



000
FTUS43 KAPX 230600 AAA
TAFAPN
TAF AMD
KAPN 230638Z 2307/2406 00000KT 3SM BR SCT001
      TEMPO 2307/2311 3/4SM BR OVC001
     FM231200 14005KT P6SM SCT250
     FM240000 00000KT P6SM BKN250=



000
FTUS43 KAPX 230500
TAFPLN
TAF
KPLN 230524Z 2306/2406 00000KT P6SM SKC
     FM231400 17004KT P6SM SCT250
     FM240000 00000KT P6SM OVC070=



000
FTUS43 KAPX 230500
TAFTVC
TAF
KTVC 230524Z 2306/2406 00000KT P6SM SKC
     FM231400 16004KT P6SM SCT250
     FM232200 00000KT P6SM OVC070=



000
FTUS43 KAPX 230500
TAFAPN
TAF
KAPN 230524Z 2306/2406 00000KT P6SM SKC
     FM231400 14005KT P6SM SCT250
     FM240000 00000KT P6SM BKN250=



000
FTUS43 KAPX 222300
TAFTVC
TAF
KTVC 222320Z 2300/2324 00000KT P6SM SKC
     FM231400 16004KT P6SM SCT250=



000
FTUS43 KAPX 222300
TAFAPN
TAF
KAPN 222320Z 2300/2324 00000KT P6SM SKC
     FM231400 14005KT P6SM SCT250=



000
FTUS43 KAPX 222300
TAFPLN
TAF
KPLN 222320Z 2300/2324 00000KT P6SM SKC
     FM231400 17004KT P6SM SCT250=



000
FTUS43 KAPX 221700
TAFPLN
TAF
KPLN 221720Z 2218/2318 VRB03KT P6SM SKC
     FM231400 17005KT P6SM SCT250=



000
FTUS43 KAPX 221700
TAFAPN
TAF
KAPN 221720Z 2218/2318 04005KT P6SM FEW030
     FM230000 00000KT P6SM SKC
     FM231400 16005KT P6SM SCT250=



000
FTUS43 KAPX 221700
TAFTVC
TAF
KTVC 221720Z 2218/2318 03003KT P6SM FEW025
     FM230000 00000KT P6SM SKC
     FM231400 17005KT P6SM SCT250=



000
FTUS43 KAPX 221700
TAFTVC
TAF
KTVC 221720Z 2218/2318 03003KT P6SM FEW025
     FM230000 00000KT P6SM SKC
     FM231400 17005KT P6SM SCT250=



000
FTUS43 KAPX 221700
TAFPLN
TAF
KPLN 221720Z 2218/2318 VRB03KT P6SM SKC
     FM231400 17005KT P6SM SCT250=



000
FTUS43 KAPX 221700
TAFAPN
TAF
KAPN 221720Z 2218/2318 04005KT P6SM FEW030
     FM230000 00000KT P6SM SKC
     FM231400 16005KT P6SM SCT250=



000
FTUS43 KAPX 221600 AAA
TAFTVC
TAF AMD
KTVC 221617Z 2216/2312 03003KT P6SM SCT020
      TEMPO 2216/2218 BKN018
     FM230000 00000KT P6SM SKC=



000
FTUS43 KAPX 221100
TAFAPN
TAF
KAPN 221120Z 2212/2312 03004KT P6SM OVC020
     FM221400 02005KT P6SM SCT025
     FM221800 03005KT P6SM SKC
     FM230000 00000KT P6SM SKC=



000
FTUS43 KAPX 221100
TAFTVC
TAF
KTVC 221120Z 2212/2312 00000KT P6SM SKC
     FM221400 03003KT P6SM SKC
     FM230000 00000KT P6SM SKC=



000
FTUS43 KAPX 221100
TAFPLN
TAF
KPLN 221120Z 2212/2312 VRB03KT P6SM BKN022
     FM221400 07003KT P6SM SKC
     FM230000 00000KT P6SM SKC=



000
FTUS43 KAPX 221000 AAA
TAFPLN
TAF AMD
KPLN 221048Z 2211/2306 00000KT P6SM BKN022
     FM221400 07003KT P6SM SKC
     FM230000 00000KT P6SM SKC=



000
FTUS43 KAPX 220500
TAFTVC
TAF
KTVC 220520Z 2206/2306 00000KT P6SM SKC
     FM221400 03003KT P6SM SKC
     FM230000 00000KT P6SM SKC=



000
FTUS43 KAPX 220500
TAFAPN
TAF
KAPN 220520Z 2206/2306 36003KT P6SM OVC022
     FM221400 02005KT P6SM SCT025
     FM221800 03005KT P6SM SKC
     FM230000 00000KT P6SM SKC=



000
FTUS43 KAPX 220500
TAFPLN
TAF
KPLN 220520Z 2206/2306 00000KT P6SM SCT022
     FM221400 07003KT P6SM SKC
     FM230000 00000KT P6SM SKC=



000
FTUS43 KAPX 220500
TAFAPN
TAF
KAPN 220520Z 2206/2306 36003KT P6SM OVC022
     FM221400 02005KT P6SM SCT025
     FM221800 03005KT P6SM SKC
     FM230000 00000KT P6SM SKC=



000
FTUS43 KAPX 220500
TAFTVC
TAF
KTVC 220520Z 2206/2306 00000KT P6SM SKC
     FM221400 03003KT P6SM SKC
     FM230000 00000KT P6SM SKC=



000
FTUS43 KAPX 220500
TAFPLN
TAF
KPLN 220520Z 2206/2306 00000KT P6SM SCT022
     FM221400 07003KT P6SM SKC
     FM230000 00000KT P6SM SKC=



000
FTUS43 KAPX 220200 AAA
TAFAPN
TAF AMD
KAPN 220236Z 2203/2224 36003KT P6SM BKN025
     FM221400 02006KT P6SM SCT030=



    US Dept of Commerce
    National Oceanic and Atmospheric Administration
    National Weather Service
    1325 East West Highway
    Silver Spring, MD 20910
    Page Author: NWS Internet Services Team
Disclaimer
Information Quality
Credits
Glossary
Privacy Policy
Freedom of Information Act (FOIA)
About Us
Career Opportunities